createdAt,value
2018-09-24T00:01:28.668Z,9.00
2018-09-24T00:03:57.088Z,8.90
2018-09-24T00:06:25.510Z,8.90
2018-09-24T00:08:53.936Z,8.80
2018-09-24T00:11:22.348Z,8.80
2018-09-24T00:13:50.896Z,8.80
2018-09-24T00:16:19.433Z,8.70
2018-09-24T00:18:47.847Z,8.70
2018-09-24T00:21:16.288Z,8.70
2018-09-24T00:23:44.742Z,8.70
2018-09-24T00:26:13.166Z,8.70
2018-09-24T00:28:41.603Z,8.70
2018-09-24T00:31:10.031Z,8.60
2018-09-24T00:33:38.464Z,8.60
2018-09-24T00:36:07.176Z,8.60
2018-09-24T00:38:35.612Z,8.60
2018-09-24T00:41:04.057Z,8.60
2018-09-24T00:43:32.666Z,8.60
2018-09-24T00:46:01.057Z,8.50
2018-09-24T00:48:29.467Z,8.50
2018-09-24T00:50:57.886Z,8.50
2018-09-24T00:53:26.337Z,8.60
2018-09-24T00:55:54.759Z,8.50
2018-09-24T00:58:23.194Z,8.60
2018-09-24T01:00:51.623Z,8.60
2018-09-24T01:03:20.028Z,8.60
2018-09-24T01:05:48.587Z,8.60
2018-09-24T01:08:17.037Z,8.60
2018-09-24T01:10:45.480Z,8.50
2018-09-24T01:13:13.915Z,8.50
2018-09-24T01:15:42.353Z,8.50
2018-09-24T01:18:10.815Z,8.40
2018-09-24T01:20:39.243Z,8.40
2018-09-24T01:23:07.678Z,8.40
2018-09-24T01:25:36.090Z,8.40
2018-09-24T01:28:04.532Z,8.30
2018-09-24T01:30:32.981Z,8.30
2018-09-24T01:33:01.418Z,8.30
2018-09-24T01:35:29.927Z,8.30
2018-09-24T01:37:58.412Z,8.30
2018-09-24T01:40:26.870Z,8.30
2018-09-24T01:42:55.322Z,8.30
2018-09-24T01:45:23.754Z,8.30
2018-09-24T01:47:52.162Z,8.30
2018-09-24T01:50:20.578Z,8.30
2018-09-24T01:52:49.038Z,8.20
2018-09-24T01:55:17.464Z,8.20
2018-09-24T01:57:45.885Z,8.20
2018-09-24T02:00:14.359Z,8.20
2018-09-24T02:02:42.780Z,8.10
2018-09-24T02:05:16.466Z,8.10
2018-09-24T02:07:44.978Z,8.10
2018-09-24T02:10:13.480Z,8.10
2018-09-24T02:12:41.908Z,8.10
2018-09-24T02:15:10.330Z,8.10
2018-09-24T02:17:38.776Z,8.10
2018-09-24T02:20:07.252Z,8.10
2018-09-24T02:22:35.656Z,8.10
2018-09-24T02:25:04.161Z,8.10
2018-09-24T02:27:32.576Z,8.10
2018-09-24T02:30:00.983Z,8.10
2018-09-24T02:32:29.452Z,8.00
2018-09-24T02:34:58.569Z,8.10
2018-09-24T02:37:27.060Z,8.00
2018-09-24T02:39:55.478Z,8.00
2018-09-24T02:42:24.193Z,8.00
2018-09-24T02:44:56.363Z,7.90
2018-09-24T02:47:25.396Z,8.00
2018-09-24T02:49:53.827Z,7.90
2018-09-24T02:52:22.248Z,8.00
2018-09-24T02:54:50.689Z,8.00
2018-09-24T02:57:19.105Z,8.00
2018-09-24T02:59:47.554Z,8.00
2018-09-24T03:02:15.988Z,8.00
2018-09-24T03:04:44.419Z,8.00
2018-09-24T03:07:12.836Z,8.00
2018-09-24T03:09:41.259Z,7.90
2018-09-24T03:12:09.684Z,8.00
2018-09-24T03:14:38.097Z,7.90
2018-09-24T03:17:06.588Z,7.90
2018-09-24T03:19:35.003Z,8.00
2018-09-24T03:22:03.468Z,8.00
2018-09-24T03:24:31.885Z,8.00
2018-09-24T03:27:00.294Z,7.90
2018-09-24T03:29:28.729Z,7.90
2018-09-24T03:31:57.211Z,7.90
2018-09-24T03:34:25.631Z,7.90
2018-09-24T03:36:54.078Z,7.90
2018-09-24T03:39:22.509Z,7.90
2018-09-24T03:41:50.950Z,7.90
2018-09-24T03:44:19.364Z,7.90
2018-09-24T03:46:47.785Z,7.80
2018-09-24T03:49:16.270Z,7.80
2018-09-24T03:51:44.699Z,7.80
2018-09-24T03:54:13.137Z,7.90
2018-09-24T03:56:41.557Z,7.80
2018-09-24T03:59:10.372Z,7.80
2018-09-24T04:01:38.805Z,7.80
2018-09-24T04:04:12.537Z,7.80
2018-09-24T04:06:46.368Z,7.80
2018-09-24T04:09:20.245Z,7.80
2018-09-24T04:11:53.983Z,7.80
2018-09-24T04:14:27.905Z,7.80
2018-09-24T04:17:01.781Z,7.80
2018-09-24T04:19:35.740Z,7.80
2018-09-24T04:22:09.800Z,7.80
2018-09-24T04:24:43.616Z,7.80
2018-09-24T04:27:17.302Z,7.70
2018-09-24T04:29:51.045Z,7.70
2018-09-24T04:32:24.817Z,7.60
2018-09-24T04:34:58.726Z,7.60
2018-09-24T04:37:32.583Z,7.60
2018-09-24T04:40:06.409Z,7.60
2018-09-24T04:42:40.196Z,7.50
2018-09-24T04:45:15.077Z,7.50
2018-09-24T04:47:48.677Z,7.50
2018-09-24T04:50:22.414Z,7.50
2018-09-24T04:52:56.404Z,7.60
2018-09-24T04:55:30.097Z,7.50
2018-09-24T04:58:04.254Z,7.60
2018-09-24T05:00:38.116Z,7.50
2018-09-24T05:03:12.096Z,7.50
2018-09-24T05:05:45.950Z,7.50
2018-09-24T05:08:21.076Z,7.50
2018-09-24T05:10:54.956Z,7.50
2018-09-24T05:13:28.754Z,7.50
2018-09-24T05:16:02.786Z,7.50
2018-09-24T05:18:36.561Z,7.40
2018-09-24T05:21:10.526Z,7.40
2018-09-24T05:23:45.950Z,7.40
2018-09-24T05:26:19.538Z,7.40
2018-09-24T05:28:53.249Z,7.40
2018-09-24T05:31:27.038Z,7.40
2018-09-24T05:34:00.844Z,7.40
2018-09-24T05:36:34.656Z,7.50
2018-09-24T05:39:08.478Z,7.50
2018-09-24T05:41:42.550Z,7.50
2018-09-24T05:44:16.360Z,7.60
2018-09-24T05:46:50.240Z,7.60
2018-09-24T05:49:24.054Z,7.70
2018-09-24T05:51:57.977Z,7.70
2018-09-24T05:54:31.880Z,7.80
2018-09-24T05:57:05.776Z,7.80
2018-09-24T05:59:39.585Z,7.80
2018-09-24T06:02:13.456Z,7.80
2018-09-24T06:04:47.117Z,7.90
2018-09-24T06:07:20.995Z,7.90
2018-09-24T06:09:54.626Z,8.00
2018-09-24T06:12:28.427Z,8.00
2018-09-24T06:15:02.304Z,8.10
2018-09-24T06:17:36.016Z,8.20
2018-09-24T06:20:09.712Z,8.20
2018-09-24T06:22:43.549Z,8.30
2018-09-24T06:25:17.216Z,8.30
2018-09-24T06:27:51.078Z,8.40
2018-09-24T06:30:24.730Z,8.50
2018-09-24T06:32:58.540Z,8.60
2018-09-24T06:35:32.249Z,8.70
2018-09-24T06:38:06.046Z,8.80
2018-09-24T06:40:39.872Z,8.90
2018-09-24T06:43:13.760Z,8.90
2018-09-24T06:45:47.655Z,8.90
2018-09-24T06:48:21.583Z,9.00
2018-09-24T06:50:55.390Z,9.00
2018-09-24T06:53:29.206Z,8.90
2018-09-24T06:56:03.008Z,8.90
2018-09-24T06:58:36.879Z,9.00
2018-09-24T07:01:11.516Z,9.00
2018-09-24T07:03:45.335Z,9.10
2018-09-24T07:06:19.191Z,9.10
2018-09-24T07:08:52.976Z,9.20
2018-09-24T07:11:26.785Z,9.20
2018-09-24T07:14:00.560Z,9.20
2018-09-24T07:16:34.153Z,9.20
2018-09-24T07:19:16.059Z,9.20
2018-09-24T07:21:49.872Z,9.30
2018-09-24T07:24:23.739Z,9.30
2018-09-24T07:26:57.400Z,9.50
2018-09-24T07:29:31.152Z,9.60
2018-09-24T07:32:04.919Z,9.70
2018-09-24T07:34:38.510Z,9.80
2018-09-24T07:37:12.469Z,9.80
2018-09-24T07:39:46.566Z,9.90
2018-09-24T07:42:20.424Z,10.00
2018-09-24T07:44:54.284Z,10.10
2018-09-24T07:47:27.929Z,10.20
2018-09-24T07:50:01.794Z,10.30
2018-09-24T07:52:35.515Z,10.40
2018-09-24T07:55:09.280Z,10.50
2018-09-24T07:57:43.120Z,10.60
2018-09-24T08:00:16.906Z,10.70
2018-09-24T08:02:50.769Z,10.70
2018-09-24T08:05:24.494Z,10.70
2018-09-24T08:07:58.172Z,10.70
2018-09-24T08:10:31.830Z,10.70
2018-09-24T08:13:05.725Z,10.70
2018-09-24T08:15:39.571Z,10.70
2018-09-24T08:18:13.335Z,10.80
2018-09-24T08:20:47.254Z,10.80
2018-09-24T08:23:21.111Z,10.90
2018-09-24T08:25:54.810Z,10.90
2018-09-24T08:28:28.666Z,11.00
2018-09-24T08:31:02.449Z,11.10
2018-09-24T08:33:36.186Z,11.20
2018-09-24T08:36:10.099Z,11.30
2018-09-24T08:38:44.008Z,11.40
2018-09-24T08:41:17.798Z,11.70
2018-09-24T08:43:51.760Z,11.80
2018-09-24T08:46:25.581Z,11.80
2018-09-24T08:48:59.294Z,11.80
2018-09-24T08:51:33.299Z,11.90
2018-09-24T08:54:06.994Z,11.90
2018-09-24T08:56:40.670Z,11.90
2018-09-24T08:59:14.515Z,11.90
2018-09-24T09:01:48.242Z,11.90
2018-09-24T09:04:22.010Z,11.80
2018-09-24T09:06:55.788Z,11.80
2018-09-24T09:09:29.611Z,11.90
2018-09-24T09:12:03.472Z,12.00
2018-09-24T09:14:37.300Z,12.20
2018-09-24T09:17:11.236Z,12.40
2018-09-24T09:19:45.098Z,12.40
2018-09-24T09:22:18.874Z,12.50
2018-09-24T09:24:52.801Z,12.60
2018-09-24T09:27:26.646Z,12.70
2018-09-24T09:30:00.503Z,12.80
2018-09-24T09:32:34.362Z,12.80
2018-09-24T09:35:08.216Z,12.70
2018-09-24T09:37:42.223Z,12.50
2018-09-24T09:40:16.011Z,12.40
2018-09-24T09:42:49.793Z,12.20
2018-09-24T09:45:23.759Z,12.00
2018-09-24T09:47:57.768Z,11.90
2018-09-24T09:50:31.577Z,11.80
2018-09-24T09:53:05.320Z,11.80
2018-09-24T09:55:39.206Z,11.80
2018-09-24T09:58:13.037Z,11.80
2018-09-24T10:00:46.916Z,11.90
2018-09-24T10:03:20.928Z,11.80
2018-09-24T10:05:54.819Z,11.90
2018-09-24T10:08:28.707Z,12.10
2018-09-24T10:11:02.611Z,12.10
2018-09-24T10:13:36.309Z,12.10
2018-09-24T10:16:10.276Z,12.20
2018-09-24T10:18:44.021Z,12.30
2018-09-24T10:21:17.908Z,12.30
2018-09-24T10:23:51.843Z,12.30
2018-09-24T10:26:25.568Z,12.40
2018-09-24T10:28:59.499Z,12.50
2018-09-24T10:31:33.402Z,12.60
2018-09-24T10:34:07.341Z,12.80
2018-09-24T10:36:41.323Z,12.90
2018-09-24T10:39:15.152Z,13.10
2018-09-24T10:41:48.928Z,13.10
2018-09-24T10:44:22.732Z,13.00
2018-09-24T10:46:56.512Z,13.10
2018-09-24T10:49:30.300Z,13.30
2018-09-24T10:52:03.990Z,13.50
2018-09-24T10:54:37.851Z,13.60
2018-09-24T10:57:11.936Z,13.70
2018-09-24T10:59:45.703Z,13.70
2018-09-24T11:02:19.559Z,13.50
2018-09-24T11:04:53.418Z,13.40
2018-09-24T11:07:27.239Z,13.50
2018-09-24T11:10:01.119Z,13.60
2018-09-24T11:12:34.870Z,13.50
2018-09-24T11:15:08.530Z,13.50
2018-09-24T11:17:42.377Z,13.50
2018-09-24T11:20:16.177Z,13.20
2018-09-24T11:22:50.132Z,13.10
2018-09-24T11:25:23.945Z,13.20
2018-09-24T11:27:57.703Z,13.40
2018-09-24T11:30:31.430Z,13.40
2018-09-24T11:33:05.132Z,13.60
2018-09-24T11:35:38.843Z,13.60
2018-09-24T11:38:12.726Z,13.70
2018-09-24T11:40:46.700Z,13.80
2018-09-24T11:43:20.463Z,14.00
2018-09-24T11:45:54.370Z,13.80
2018-09-24T11:48:28.366Z,13.60
2018-09-24T11:51:02.335Z,13.50
2018-09-24T11:53:36.307Z,13.50
2018-09-24T11:56:10.296Z,13.60
2018-09-24T11:58:44.122Z,13.90
2018-09-24T12:01:17.906Z,13.90
2018-09-24T12:03:51.555Z,13.80
2018-09-24T12:06:25.248Z,13.80
2018-09-24T12:08:59.024Z,13.90
2018-09-24T12:11:32.912Z,14.10
2018-09-24T12:14:06.533Z,14.20
2018-09-24T12:16:40.335Z,14.30
2018-09-24T12:19:14.352Z,14.30
2018-09-24T12:21:48.222Z,14.20
2018-09-24T12:24:22.031Z,14.10
2018-09-24T12:26:56.021Z,13.90
2018-09-24T12:29:29.890Z,13.90
2018-09-24T12:32:03.688Z,13.90
2018-09-24T12:34:37.494Z,13.90
2018-09-24T12:37:11.437Z,14.10
2018-09-24T12:39:45.225Z,14.10
2018-09-24T12:42:18.934Z,14.00
2018-09-24T12:44:52.800Z,14.10
2018-09-24T12:47:26.804Z,14.40
2018-09-24T12:50:00.586Z,14.70
2018-09-24T12:52:34.307Z,14.80
2018-09-24T12:55:08.232Z,15.00
2018-09-24T12:57:42.080Z,15.20
2018-09-24T13:00:15.865Z,15.40
2018-09-24T13:02:49.701Z,15.70
2018-09-24T13:05:23.675Z,16.20
2018-09-24T13:07:57.674Z,16.40
2018-09-24T13:10:31.441Z,16.50
2018-09-24T13:13:05.262Z,16.20
2018-09-24T13:15:39.037Z,16.00
2018-09-24T13:18:12.961Z,15.50
2018-09-24T13:20:46.865Z,15.20
2018-09-24T13:23:20.626Z,15.10
2018-09-24T13:25:54.263Z,14.90
2018-09-24T13:28:28.158Z,15.00
2018-09-24T13:31:01.825Z,15.30
2018-09-24T13:33:35.744Z,15.60
2018-09-24T13:36:09.573Z,15.60
2018-09-24T13:38:43.228Z,15.50
2018-09-24T13:41:17.133Z,15.40
2018-09-24T13:43:51.051Z,15.40
2018-09-24T13:46:24.978Z,15.50
2018-09-24T13:48:59.608Z,15.40
2018-09-24T13:51:33.316Z,15.30
2018-09-24T13:54:07.199Z,15.20
2018-09-24T13:56:40.847Z,15.20
2018-09-24T13:59:14.758Z,15.30
2018-09-24T14:01:48.646Z,15.40
2018-09-24T14:04:22.619Z,15.30
2018-09-24T14:06:56.569Z,15.20
2018-09-24T14:09:30.345Z,15.00
2018-09-24T14:12:04.185Z,14.90
2018-09-24T14:14:38.187Z,14.90
2018-09-24T14:17:12.120Z,15.10
2018-09-24T14:19:46.103Z,15.10
2018-09-24T14:22:19.821Z,15.00
2018-09-24T14:24:53.721Z,14.90
2018-09-24T14:27:27.487Z,14.80
2018-09-24T14:30:01.441Z,14.80
2018-09-24T14:32:35.434Z,14.90
2018-09-24T14:35:09.394Z,14.80
2018-09-24T14:37:43.255Z,14.70
2018-09-24T14:40:17.149Z,14.80
2018-09-24T14:42:51.071Z,14.70
2018-09-24T14:45:24.922Z,14.70
2018-09-24T14:47:58.623Z,14.70
2018-09-24T14:50:32.514Z,14.70
2018-09-24T14:53:06.252Z,14.50
2018-09-24T14:55:40.154Z,14.30
2018-09-24T14:58:13.978Z,14.20
2018-09-24T15:00:47.721Z,14.20
2018-09-24T15:03:21.687Z,14.10
2018-09-24T15:05:55.591Z,14.20
2018-09-24T15:08:29.535Z,14.20
2018-09-24T15:11:03.392Z,14.20
2018-09-24T15:13:37.342Z,14.20
2018-09-24T15:16:11.336Z,14.20
2018-09-24T15:18:45.264Z,14.20
2018-09-24T15:21:19.221Z,14.20
2018-09-24T15:23:52.927Z,14.20
2018-09-24T15:26:26.932Z,14.20
2018-09-24T15:29:00.878Z,14.20
2018-09-24T15:31:34.666Z,14.20
2018-09-24T15:34:08.472Z,14.20
2018-09-24T15:36:42.336Z,14.30
2018-09-24T15:39:16.148Z,14.30
2018-09-24T15:41:49.987Z,14.30
2018-09-24T15:44:23.930Z,14.30
2018-09-24T15:46:57.713Z,14.30
2018-09-24T15:49:31.612Z,14.30
2018-09-24T15:52:05.712Z,14.30
2018-09-24T15:54:41.191Z,14.30
2018-09-24T15:57:15.143Z,14.40
2018-09-24T15:59:48.892Z,14.40
2018-09-24T16:02:22.786Z,14.40
2018-09-24T16:04:56.698Z,14.30
2018-09-24T16:07:30.701Z,14.30
2018-09-24T16:10:04.671Z,14.20
2018-09-24T16:12:38.360Z,14.20
2018-09-24T16:15:12.573Z,14.20
2018-09-24T16:17:46.523Z,14.10
2018-09-24T16:20:20.331Z,14.10
2018-09-24T16:22:54.035Z,14.00
2018-09-24T16:25:27.844Z,14.00
2018-09-24T16:28:01.850Z,14.00
2018-09-24T16:30:35.625Z,14.00
2018-09-24T16:33:09.551Z,13.90
2018-09-24T16:35:43.331Z,13.90
2018-09-24T16:38:17.185Z,13.90
2018-09-24T16:40:50.938Z,13.80
2018-09-24T16:43:24.753Z,13.80
2018-09-24T16:45:58.705Z,13.70
2018-09-24T16:48:32.620Z,13.60
2018-09-24T16:51:06.452Z,13.50
2018-09-24T16:53:40.503Z,13.50
2018-09-24T16:56:14.454Z,13.40
2018-09-24T16:58:48.202Z,13.40
2018-09-24T17:01:22.054Z,13.30
2018-09-24T17:03:55.783Z,13.20
2018-09-24T17:06:29.704Z,13.20
2018-09-24T17:09:03.595Z,13.20
2018-09-24T17:11:37.538Z,13.10
2018-09-24T17:14:11.471Z,13.00
2018-09-24T17:16:48.746Z,13.00
2018-09-24T17:19:22.489Z,13.00
2018-09-24T17:21:56.240Z,12.90
2018-09-24T17:24:30.214Z,12.90
2018-09-24T17:27:03.959Z,12.80
2018-09-24T17:29:37.912Z,12.70
2018-09-24T17:32:11.731Z,12.60
2018-09-24T17:34:45.527Z,12.50
2018-09-24T17:37:19.449Z,12.50
2018-09-24T17:39:53.341Z,12.40
2018-09-24T17:42:27.269Z,12.30
2018-09-24T17:45:01.036Z,12.20
2018-09-24T17:47:34.780Z,12.20
2018-09-24T17:50:08.527Z,12.10
2018-09-24T17:52:42.296Z,12.00
2018-09-24T17:55:16.077Z,11.90
2018-09-24T17:57:49.906Z,11.80
2018-09-24T18:00:23.641Z,11.80
2018-09-24T18:02:57.539Z,11.70
2018-09-24T18:05:31.514Z,11.60
2018-09-24T18:08:05.431Z,11.60
2018-09-24T18:10:39.600Z,11.50
2018-09-24T18:13:13.888Z,11.50
2018-09-24T18:15:47.658Z,11.50
2018-09-24T18:18:21.536Z,11.40
2018-09-24T18:20:55.255Z,11.40
2018-09-24T18:23:29.073Z,11.40
2018-09-24T18:26:02.918Z,11.30
2018-09-24T18:28:36.678Z,11.30
2018-09-24T18:31:10.598Z,11.20
2018-09-24T18:33:44.420Z,11.20
2018-09-24T18:36:18.382Z,11.10
2018-09-24T18:38:52.190Z,11.10
2018-09-24T18:41:26.101Z,11.10
2018-09-24T18:43:59.907Z,11.00
2018-09-24T18:46:33.865Z,11.00
2018-09-24T18:49:07.744Z,11.00
2018-09-24T18:51:41.683Z,10.90
2018-09-24T18:54:15.612Z,10.90
2018-09-24T18:56:49.511Z,10.90
2018-09-24T18:59:23.259Z,10.90
2018-09-24T19:01:57.140Z,10.90
2018-09-24T19:04:31.027Z,10.90
2018-09-24T19:07:04.725Z,11.00
2018-09-24T19:09:38.690Z,11.00
2018-09-24T19:12:12.527Z,11.00
2018-09-24T19:14:46.482Z,11.00
2018-09-24T19:17:20.181Z,11.00
2018-09-24T19:19:54.021Z,10.90
2018-09-24T19:22:27.798Z,10.90
2018-09-24T19:25:01.812Z,10.80
2018-09-24T19:27:35.705Z,10.80
2018-09-24T19:30:09.663Z,10.70
2018-09-24T19:32:43.626Z,10.70
2018-09-24T19:35:17.365Z,10.60
2018-09-24T19:37:51.174Z,10.60
2018-09-24T19:40:25.036Z,10.50
2018-09-24T19:42:58.787Z,10.50
2018-09-24T19:45:32.655Z,10.40
2018-09-24T19:48:06.458Z,10.40
2018-09-24T19:50:40.180Z,10.40
2018-09-24T19:53:15.093Z,10.30
2018-09-24T19:55:49.193Z,10.20
2018-09-24T19:58:22.925Z,10.20
2018-09-24T20:00:56.745Z,10.10
2018-09-24T20:03:30.624Z,10.10
2018-09-24T20:06:04.309Z,10.10
2018-09-24T20:08:38.216Z,10.10
2018-09-24T20:11:12.105Z,9.90
2018-09-24T20:13:45.967Z,9.90
2018-09-24T20:16:19.756Z,9.90
2018-09-24T20:18:53.595Z,9.80
2018-09-24T20:21:27.541Z,9.80
2018-09-24T20:24:01.452Z,9.70
2018-09-24T20:26:35.419Z,9.60
2018-09-24T20:29:09.313Z,9.60
2018-09-24T20:31:43.202Z,9.50
2018-09-24T20:34:16.959Z,9.50
2018-09-24T20:36:50.631Z,9.50
2018-09-24T20:39:24.452Z,9.40
2018-09-24T20:41:58.302Z,9.40
2018-09-24T20:44:32.262Z,9.40
2018-09-24T20:47:06.138Z,9.30
2018-09-24T20:49:39.883Z,9.30
2018-09-24T20:52:13.708Z,9.20
2018-09-24T20:54:47.437Z,9.20
2018-09-24T20:57:21.440Z,9.20
2018-09-24T20:59:55.239Z,9.10
2018-09-24T21:02:29.280Z,9.00
2018-09-24T21:05:03.122Z,9.00
2018-09-24T21:07:37.042Z,9.00
2018-09-24T21:10:11.293Z,8.90
2018-09-24T21:12:45.236Z,8.90
2018-09-24T21:15:19.099Z,8.80
2018-09-24T21:17:53.004Z,8.80
2018-09-24T21:20:26.712Z,8.80
2018-09-24T21:23:00.610Z,8.70
2018-09-24T21:25:34.482Z,8.80
2018-09-24T21:28:08.239Z,8.70
2018-09-24T21:30:42.222Z,8.70
2018-09-24T21:33:16.136Z,8.70
2018-09-24T21:35:50.092Z,8.70
2018-09-24T21:38:23.828Z,8.70
2018-09-24T21:40:57.679Z,8.70
2018-09-24T21:43:31.534Z,8.60
2018-09-24T21:46:05.307Z,8.60
2018-09-24T21:48:39.179Z,8.60
2018-09-24T21:51:13.012Z,8.70
2018-09-24T21:53:46.772Z,8.70
2018-09-24T21:56:20.425Z,8.70
2018-09-24T21:58:54.349Z,8.60
2018-09-24T22:01:28.158Z,8.60
2018-09-24T22:04:01.933Z,8.60
2018-09-24T22:06:35.713Z,8.60
2018-09-24T22:09:10.568Z,8.50
2018-09-24T22:11:44.447Z,8.50
2018-09-24T22:14:18.226Z,8.50
2018-09-24T22:16:52.147Z,8.50
2018-09-24T22:19:25.897Z,8.40
2018-09-24T22:21:59.643Z,8.40
2018-09-24T22:24:33.601Z,8.40
2018-09-24T22:27:07.567Z,8.40
2018-09-24T22:29:41.297Z,8.30
2018-09-24T22:32:15.099Z,8.30
2018-09-24T22:34:48.914Z,8.30
2018-09-24T22:37:22.718Z,8.30
2018-09-24T22:39:56.474Z,8.20
2018-09-24T22:42:30.160Z,8.20
2018-09-24T22:45:04.015Z,8.20
2018-09-24T22:47:37.944Z,8.10
2018-09-24T22:50:11.786Z,8.10
2018-09-24T22:52:45.620Z,8.00
2018-09-24T22:55:19.381Z,8.00
2018-09-24T22:57:53.116Z,8.10
2018-09-24T23:00:26.890Z,8.10
2018-09-24T23:03:00.674Z,8.10
2018-09-24T23:05:34.452Z,8.10
2018-09-24T23:08:08.299Z,8.10
2018-09-24T23:10:42.059Z,8.10
2018-09-24T23:13:16.013Z,8.10
2018-09-24T23:15:49.759Z,8.10
2018-09-24T23:18:23.566Z,8.00
2018-09-24T23:20:57.363Z,8.00
2018-09-24T23:23:31.229Z,8.00
2018-09-24T23:26:05.206Z,8.00
2018-09-24T23:28:39.140Z,8.00
2018-09-24T23:31:13.102Z,8.00
2018-09-24T23:33:47.092Z,7.90
2018-09-24T23:36:20.996Z,7.90
2018-09-24T23:38:54.703Z,7.90
2018-09-24T23:41:28.475Z,7.90
2018-09-24T23:44:02.417Z,7.90
2018-09-24T23:46:36.241Z,7.90
2018-09-24T23:49:10.156Z,7.90
2018-09-24T23:51:44.069Z,7.80
2018-09-24T23:54:17.948Z,7.80
2018-09-24T23:56:51.667Z,7.80
2018-09-24T23:59:25.468Z,7.80
